sensor_id;sensor_type;location;lat;lon;timestamp;P1;durP1;ratioP1;P2;durP2;ratioP2
16403;SDS011;8311;50.158;8.642;2023-01-10T00:01:24;2.30;;;1.17;;
16403;SDS011;8311;50.158;8.642;2023-01-10T00:04:17;2.38;;;1.27;;
16403;SDS011;8311;50.158;8.642;2023-01-10T00:07:11;2.10;;;1.02;;
16403;SDS011;8311;50.158;8.642;2023-01-10T00:10:04;2.78;;;1.35;;
16403;SDS011;8311;50.158;8.642;2023-01-10T00:12:58;3.30;;;0.98;;
16403;SDS011;8311;50.158;8.642;2023-01-10T00:16:09;2.10;;;1.02;;
16403;SDS011;8311;50.158;8.642;2023-01-10T00:19:02;1.75;;;0.75;;
16403;SDS011;8311;50.158;8.642;2023-01-10T00:21:57;3.08;;;1.00;;
16403;SDS011;8311;50.158;8.642;2023-01-10T00:25:05;2.78;;;0.82;;
16403;SDS011;8311;50.158;8.642;2023-01-10T00:27:58;3.38;;;1.05;;
16403;SDS011;8311;50.158;8.642;2023-01-10T00:31:01;3.00;;;0.93;;
16403;SDS011;8311;50.158;8.642;2023-01-10T00:33:56;1.83;;;0.95;;
16403;SDS011;8311;50.158;8.642;2023-01-10T00:36:49;2.08;;;1.00;;
16403;SDS011;8311;50.158;8.642;2023-01-10T00:39:43;0.70;;;0.70;;
16403;SDS011;8311;50.158;8.642;2023-01-10T00:42:37;0.75;;;0.70;;
16403;SDS011;8311;50.158;8.642;2023-01-10T00:45:47;3.08;;;0.93;;
16403;SDS011;8311;50.158;8.642;2023-01-10T00:48:40;2.00;;;0.85;;
16403;SDS011;8311;50.158;8.642;2023-01-10T00:51:33;2.50;;;0.90;;
16403;SDS011;8311;50.158;8.642;2023-01-10T00:54:27;3.67;;;0.88;;
16403;SDS011;8311;50.158;8.642;2023-01-10T00:57:21;1.58;;;0.60;;
16403;SDS011;8311;50.158;8.642;2023-01-10T01:00:15;1.23;;;0.80;;
16403;SDS011;8311;50.158;8.642;2023-01-10T01:03:08;1.75;;;0.70;;
16403;SDS011;8311;50.158;8.642;2023-01-10T01:06:03;2.10;;;0.60;;
16403;SDS011;8311;50.158;8.642;2023-01-10T01:08:57;1.02;;;0.68;;
16403;SDS011;8311;50.158;8.642;2023-01-10T01:11:51;1.02;;;0.88;;
16403;SDS011;8311;50.158;8.642;2023-01-10T01:14:45;1.30;;;0.75;;
16403;SDS011;8311;50.158;8.642;2023-01-10T01:17:38;1.35;;;0.80;;
16403;SDS011;8311;50.158;8.642;2023-01-10T01:20:31;1.58;;;0.90;;
16403;SDS011;8311;50.158;8.642;2023-01-10T01:23:25;1.67;;;0.85;;
16403;SDS011;8311;50.158;8.642;2023-01-10T01:26:18;1.75;;;0.68;;
16403;SDS011;8311;50.158;8.642;2023-01-10T01:29:11;1.40;;;0.70;;
16403;SDS011;8311;50.158;8.642;2023-01-10T01:32:07;1.08;;;0.65;;
16403;SDS011;8311;50.158;8.642;2023-01-10T01:35:00;2.17;;;0.70;;
16403;SDS011;8311;50.158;8.642;2023-01-10T01:37:53;2.42;;;1.00;;
16403;SDS011;8311;50.158;8.642;2023-01-10T01:40:47;0.98;;;0.80;;
16403;SDS011;8311;50.158;8.642;2023-01-10T01:46:54;1.73;;;1.10;;
16403;SDS011;8311;50.158;8.642;2023-01-10T01:49:53;2.58;;;0.98;;
16403;SDS011;8311;50.158;8.642;2023-01-10T01:52:48;3.38;;;1.10;;
16403;SDS011;8311;50.158;8.642;2023-01-10T01:55:44;1.67;;;0.88;;
16403;SDS011;8311;50.158;8.642;2023-01-10T01:58:40;1.20;;;0.80;;
16403;SDS011;8311;50.158;8.642;2023-01-10T02:01:39;2.20;;;0.80;;
16403;SDS011;8311;50.158;8.642;2023-01-10T02:04:37;2.05;;;0.90;;
16403;SDS011;8311;50.158;8.642;2023-01-10T02:07:37;3.38;;;0.80;;
16403;SDS011;8311;50.158;8.642;2023-01-10T02:10:33;1.48;;;0.68;;
16403;SDS011;8311;50.158;8.642;2023-01-10T02:13:31;1.23;;;0.75;;
16403;SDS011;8311;50.158;8.642;2023-01-10T02:16:26;1.58;;;0.80;;
16403;SDS011;8311;50.158;8.642;2023-01-10T02:19:23;3.20;;;1.25;;
16403;SDS011;8311;50.158;8.642;2023-01-10T02:22:39;1.30;;;0.73;;
16403;SDS011;8311;50.158;8.642;2023-01-10T02:29:31;3.20;;;1.20;;
16403;SDS011;8311;50.158;8.642;2023-01-10T02:32:39;1.50;;;0.80;;
16403;SDS011;8311;50.158;8.642;2023-01-10T02:35:53;2.20;;;0.80;;
16403;SDS011;8311;50.158;8.642;2023-01-10T02:38:57;2.15;;;0.90;;
16403;SDS011;8311;50.158;8.642;2023-01-10T02:41:56;1.63;;;0.85;;
16403;SDS011;8311;50.158;8.642;2023-01-10T02:44:56;3.08;;;1.02;;
16403;SDS011;8311;50.158;8.642;2023-01-10T02:47:57;3.92;;;1.25;;
16403;SDS011;8311;50.158;8.642;2023-01-10T02:50:52;1.45;;;0.80;;
16403;SDS011;8311;50.158;8.642;2023-01-10T02:53:50;3.75;;;1.10;;
16403;SDS011;8311;50.158;8.642;2023-01-10T02:56:56;1.33;;;0.80;;
16403;SDS011;8311;50.158;8.642;2023-01-10T03:03:26;1.73;;;0.80;;
16403;SDS011;8311;50.158;8.642;2023-01-10T03:06:28;2.83;;;1.00;;
16403;SDS011;8311;50.158;8.642;2023-01-10T03:09:28;2.42;;;0.80;;
16403;SDS011;8311;50.158;8.642;2023-01-10T03:12:27;1.98;;;0.90;;
16403;SDS011;8311;50.158;8.642;2023-01-10T03:15:28;1.90;;;0.90;;
16403;SDS011;8311;50.158;8.642;2023-01-10T03:18:29;3.55;;;1.05;;
16403;SDS011;8311;50.158;8.642;2023-01-10T03:21:26;1.95;;;0.80;;
16403;SDS011;8311;50.158;8.642;2023-01-10T03:24:23;4.72;;;1.00;;
16403;SDS011;8311;50.158;8.642;2023-01-10T03:27:21;2.53;;;1.15;;
16403;SDS011;8311;50.158;8.642;2023-01-10T03:30:22;2.85;;;0.88;;
16403;SDS011;8311;50.158;8.642;2023-01-10T03:33:21;2.95;;;0.90;;
16403;SDS011;8311;50.158;8.642;2023-01-10T03:36:26;1.92;;;0.90;;
16403;SDS011;8311;50.158;8.642;2023-01-10T03:39:25;2.80;;;1.00;;
16403;SDS011;8311;50.158;8.642;2023-01-10T03:42:30;3.38;;;0.80;;
16403;SDS011;8311;50.158;8.642;2023-01-10T03:45:54;1.70;;;0.80;;
16403;SDS011;8311;50.158;8.642;2023-01-10T03:48:51;1.48;;;0.73;;
16403;SDS011;8311;50.158;8.642;2023-01-10T03:51:50;2.25;;;0.80;;
16403;SDS011;8311;50.158;8.642;2023-01-10T03:54:45;3.13;;;1.02;;
16403;SDS011;8311;50.158;8.642;2023-01-10T03:57:40;2.78;;;0.80;;
16403;SDS011;8311;50.158;8.642;2023-01-10T04:00:36;1.38;;;0.73;;
16403;SDS011;8311;50.158;8.642;2023-01-10T04:03:29;2.25;;;1.00;;
16403;SDS011;8311;50.158;8.642;2023-01-10T04:06:23;1.73;;;0.57;;
16403;SDS011;8311;50.158;8.642;2023-01-10T04:09:17;2.13;;;0.82;;
16403;SDS011;8311;50.158;8.642;2023-01-10T04:12:11;2.38;;;0.90;;
16403;SDS011;8311;50.158;8.642;2023-01-10T04:15:04;4.38;;;1.30;;
16403;SDS011;8311;50.158;8.642;2023-01-10T04:17:57;1.63;;;0.80;;
16403;SDS011;8311;50.158;8.642;2023-01-10T04:20:50;4.82;;;1.02;;
16403;SDS011;8311;50.158;8.642;2023-01-10T04:23:44;1.77;;;0.90;;
16403;SDS011;8311;50.158;8.642;2023-01-10T04:26:38;2.05;;;1.00;;
16403;SDS011;8311;50.158;8.642;2023-01-10T04:29:31;4.45;;;1.20;;
16403;SDS011;8311;50.158;8.642;2023-01-10T04:32:25;2.35;;;1.00;;
16403;SDS011;8311;50.158;8.642;2023-01-10T04:35:18;2.40;;;0.73;;
16403;SDS011;8311;50.158;8.642;2023-01-10T04:38:11;3.13;;;1.20;;
16403;SDS011;8311;50.158;8.642;2023-01-10T04:41:04;3.80;;;1.00;;
16403;SDS011;8311;50.158;8.642;2023-01-10T04:43:58;2.75;;;1.25;;
16403;SDS011;8311;50.158;8.642;2023-01-10T04:46:51;2.47;;;0.90;;
16403;SDS011;8311;50.158;8.642;2023-01-10T04:49:45;2.83;;;1.13;;
16403;SDS011;8311;50.158;8.642;2023-01-10T04:52:38;2.92;;;1.02;;
16403;SDS011;8311;50.158;8.642;2023-01-10T04:55:33;1.88;;;1.00;;
16403;SDS011;8311;50.158;8.642;2023-01-10T04:58:26;2.58;;;1.10;;
16403;SDS011;8311;50.158;8.642;2023-01-10T05:01:22;2.60;;;1.08;;
16403;SDS011;8311;50.158;8.642;2023-01-10T05:04:16;2.67;;;1.15;;
16403;SDS011;8311;50.158;8.642;2023-01-10T05:07:12;2.60;;;0.80;;
16403;SDS011;8311;50.158;8.642;2023-01-10T05:10:06;6.55;;;1.67;;
16403;SDS011;8311;50.158;8.642;2023-01-10T05:13:00;2.95;;;1.10;;
16403;SDS011;8311;50.158;8.642;2023-01-10T05:15:53;3.20;;;1.25;;
16403;SDS011;8311;50.158;8.642;2023-01-10T05:18:50;4.90;;;1.20;;
16403;SDS011;8311;50.158;8.642;2023-01-10T05:21:43;3.50;;;1.20;;
16403;SDS011;8311;50.158;8.642;2023-01-10T05:24:37;4.28;;;1.25;;
16403;SDS011;8311;50.158;8.642;2023-01-10T05:27:29;3.67;;;1.77;;
16403;SDS011;8311;50.158;8.642;2023-01-10T05:30:23;3.55;;;1.25;;
16403;SDS011;8311;50.158;8.642;2023-01-10T05:33:15;3.13;;;1.30;;
16403;SDS011;8311;50.158;8.642;2023-01-10T05:36:10;3.00;;;1.20;;
16403;SDS011;8311;50.158;8.642;2023-01-10T05:39:03;4.18;;;1.63;;
16403;SDS011;8311;50.158;8.642;2023-01-10T05:41:56;3.92;;;1.25;;
16403;SDS011;8311;50.158;8.642;2023-01-10T05:44:48;4.50;;;1.35;;
16403;SDS011;8311;50.158;8.642;2023-01-10T05:47:42;4.95;;;1.23;;
16403;SDS011;8311;50.158;8.642;2023-01-10T05:50:35;4.32;;;1.40;;
16403;SDS011;8311;50.158;8.642;2023-01-10T05:53:29;4.90;;;1.70;;
16403;SDS011;8311;50.158;8.642;2023-01-10T05:56:23;3.78;;;1.30;;
16403;SDS011;8311;50.158;8.642;2023-01-10T05:59:16;4.85;;;1.80;;
16403;SDS011;8311;50.158;8.642;2023-01-10T06:02:19;3.78;;;1.52;;
16403;SDS011;8311;50.158;8.642;2023-01-10T06:05:14;4.55;;;1.55;;
16403;SDS011;8311;50.158;8.642;2023-01-10T06:08:07;4.45;;;1.35;;
16403;SDS011;8311;50.158;8.642;2023-01-10T06:11:02;6.07;;;2.00;;
16403;SDS011;8311;50.158;8.642;2023-01-10T06:13:55;5.47;;;1.58;;
16403;SDS011;8311;50.158;8.642;2023-01-10T06:16:48;4.70;;;1.77;;
16403;SDS011;8311;50.158;8.642;2023-01-10T06:19:42;6.30;;;2.30;;
16403;SDS011;8311;50.158;8.642;2023-01-10T06:22:34;6.00;;;2.03;;
16403;SDS011;8311;50.158;8.642;2023-01-10T06:25:28;3.65;;;1.77;;
16403;SDS011;8311;50.158;8.642;2023-01-10T06:28:23;7.03;;;1.80;;
16403;SDS011;8311;50.158;8.642;2023-01-10T06:31:17;3.88;;;1.58;;
16403;SDS011;8311;50.158;8.642;2023-01-10T06:34:13;4.28;;;1.77;;
16403;SDS011;8311;50.158;8.642;2023-01-10T06:37:06;4.75;;;2.05;;
16403;SDS011;8311;50.158;8.642;2023-01-10T06:39:59;5.38;;;1.70;;
16403;SDS011;8311;50.158;8.642;2023-01-10T06:42:53;2.90;;;1.40;;
16403;SDS011;8311;50.158;8.642;2023-01-10T06:45:48;5.70;;;2.15;;
16403;SDS011;8311;50.158;8.642;2023-01-10T06:48:42;5.40;;;1.70;;
16403;SDS011;8311;50.158;8.642;2023-01-10T06:51:35;3.67;;;1.63;;
16403;SDS011;8311;50.158;8.642;2023-01-10T06:54:29;4.13;;;1.55;;
16403;SDS011;8311;50.158;8.642;2023-01-10T06:57:22;7.00;;;2.15;;
16403;SDS011;8311;50.158;8.642;2023-01-10T07:00:15;4.80;;;1.90;;
16403;SDS011;8311;50.158;8.642;2023-01-10T07:03:11;6.30;;;2.00;;
16403;SDS011;8311;50.158;8.642;2023-01-10T07:06:06;4.53;;;1.85;;
16403;SDS011;8311;50.158;8.642;2023-01-10T07:09:01;8.23;;;2.35;;
16403;SDS011;8311;50.158;8.642;2023-01-10T07:11:55;7.53;;;2.08;;
16403;SDS011;8311;50.158;8.642;2023-01-10T07:14:51;5.90;;;1.92;;
16403;SDS011;8311;50.158;8.642;2023-01-10T07:17:45;6.60;;;2.30;;
16403;SDS011;8311;50.158;8.642;2023-01-10T07:20:40;7.93;;;2.45;;
16403;SDS011;8311;50.158;8.642;2023-01-10T07:23:33;6.13;;;2.22;;
16403;SDS011;8311;50.158;8.642;2023-01-10T07:26:26;6.50;;;2.40;;
16403;SDS011;8311;50.158;8.642;2023-01-10T07:29:20;6.60;;;2.15;;
16403;SDS011;8311;50.158;8.642;2023-01-10T07:32:13;7.63;;;2.63;;
16403;SDS011;8311;50.158;8.642;2023-01-10T07:35:07;6.88;;;2.15;;
16403;SDS011;8311;50.158;8.642;2023-01-10T07:38:02;9.75;;;2.63;;
16403;SDS011;8311;50.158;8.642;2023-01-10T07:40:55;7.00;;;2.50;;
16403;SDS011;8311;50.158;8.642;2023-01-10T07:43:48;6.05;;;2.10;;
16403;SDS011;8311;50.158;8.642;2023-01-10T07:46:41;8.65;;;2.20;;
16403;SDS011;8311;50.158;8.642;2023-01-10T07:49:34;8.27;;;2.35;;
16403;SDS011;8311;50.158;8.642;2023-01-10T07:52:27;7.50;;;2.33;;
16403;SDS011;8311;50.158;8.642;2023-01-10T07:55:22;5.25;;;2.05;;
16403;SDS011;8311;50.158;8.642;2023-01-10T07:58:16;6.10;;;1.83;;
16403;SDS011;8311;50.158;8.642;2023-01-10T08:01:10;4.88;;;1.90;;
16403;SDS011;8311;50.158;8.642;2023-01-10T08:04:04;7.45;;;2.30;;
16403;SDS011;8311;50.158;8.642;2023-01-10T08:06:57;6.63;;;2.20;;
16403;SDS011;8311;50.158;8.642;2023-01-10T08:09:50;9.00;;;2.05;;
16403;SDS011;8311;50.158;8.642;2023-01-10T08:12:44;8.93;;;2.45;;
16403;SDS011;8311;50.158;8.642;2023-01-10T08:15:39;8.27;;;2.53;;
16403;SDS011;8311;50.158;8.642;2023-01-10T08:18:32;9.02;;;2.38;;
16403;SDS011;8311;50.158;8.642;2023-01-10T08:21:25;7.90;;;2.45;;
16403;SDS011;8311;50.158;8.642;2023-01-10T08:24:19;6.68;;;2.53;;
16403;SDS011;8311;50.158;8.642;2023-01-10T08:27:11;4.03;;;1.92;;
16403;SDS011;8311;50.158;8.642;2023-01-10T08:30:07;7.25;;;2.50;;
16403;SDS011;8311;50.158;8.642;2023-01-10T08:33:01;8.13;;;2.05;;
16403;SDS011;8311;50.158;8.642;2023-01-10T08:35:55;7.90;;;2.60;;
16403;SDS011;8311;50.158;8.642;2023-01-10T08:38:48;5.78;;;1.80;;
16403;SDS011;8311;50.158;8.642;2023-01-10T08:41:41;7.25;;;1.85;;
16403;SDS011;8311;50.158;8.642;2023-01-10T08:44:34;7.53;;;2.38;;
16403;SDS011;8311;50.158;8.642;2023-01-10T08:47:29;5.55;;;2.08;;
16403;SDS011;8311;50.158;8.642;2023-01-10T08:50:23;5.93;;;2.00;;
16403;SDS011;8311;50.158;8.642;2023-01-10T08:53:17;6.18;;;2.35;;
16403;SDS011;8311;50.158;8.642;2023-01-10T08:56:10;5.55;;;2.38;;
16403;SDS011;8311;50.158;8.642;2023-01-10T08:59:03;5.43;;;1.83;;
16403;SDS011;8311;50.158;8.642;2023-01-10T09:01:57;3.97;;;1.70;;
16403;SDS011;8311;50.158;8.642;2023-01-10T09:04:51;5.47;;;2.17;;
16403;SDS011;8311;50.158;8.642;2023-01-10T09:07:44;6.90;;;2.15;;
16403;SDS011;8311;50.158;8.642;2023-01-10T09:10:38;5.82;;;2.10;;
16403;SDS011;8311;50.158;8.642;2023-01-10T09:13:32;6.18;;;2.10;;
16403;SDS011;8311;50.158;8.642;2023-01-10T09:16:26;5.90;;;2.10;;
16403;SDS011;8311;50.158;8.642;2023-01-10T09:19:19;4.30;;;1.92;;
16403;SDS011;8311;50.158;8.642;2023-01-10T09:22:13;9.07;;;2.80;;
16403;SDS011;8311;50.158;8.642;2023-01-10T09:25:06;7.18;;;2.80;;
16403;SDS011;8311;50.158;8.642;2023-01-10T09:28:00;10.95;;;2.88;;
16403;SDS011;8311;50.158;8.642;2023-01-10T09:30:55;8.35;;;2.20;;
16403;SDS011;8311;50.158;8.642;2023-01-10T09:33:48;7.53;;;2.47;;
16403;SDS011;8311;50.158;8.642;2023-01-10T09:36:41;7.35;;;2.55;;
16403;SDS011;8311;50.158;8.642;2023-01-10T09:39:35;9.35;;;2.35;;
16403;SDS011;8311;50.158;8.642;2023-01-10T09:42:33;7.10;;;2.00;;
16403;SDS011;8311;50.158;8.642;2023-01-10T09:45:45;8.73;;;2.45;;
16403;SDS011;8311;50.158;8.642;2023-01-10T09:48:44;5.15;;;2.03;;
16403;SDS011;8311;50.158;8.642;2023-01-10T09:51:45;11.82;;;2.45;;
16403;SDS011;8311;50.158;8.642;2023-01-10T09:54:42;9.40;;;3.00;;
16403;SDS011;8311;50.158;8.642;2023-01-10T09:57:35;8.52;;;2.58;;
16403;SDS011;8311;50.158;8.642;2023-01-10T10:00:33;8.70;;;2.30;;
16403;SDS011;8311;50.158;8.642;2023-01-10T10:03:31;8.40;;;2.25;;
16403;SDS011;8311;50.158;8.642;2023-01-10T10:06:32;9.10;;;2.20;;
16403;SDS011;8311;50.158;8.642;2023-01-10T10:09:27;5.45;;;2.10;;
16403;SDS011;8311;50.158;8.642;2023-01-10T10:12:26;4.35;;;2.10;;
16403;SDS011;8311;50.158;8.642;2023-01-10T10:15:28;5.93;;;2.20;;
16403;SDS011;8311;50.158;8.642;2023-01-10T10:18:28;4.80;;;1.75;;
16403;SDS011;8311;50.158;8.642;2023-01-10T10:21:35;4.03;;;1.63;;
16403;SDS011;8311;50.158;8.642;2023-01-10T10:24:35;6.45;;;1.80;;
16403;SDS011;8311;50.158;8.642;2023-01-10T10:27:43;4.53;;;1.88;;
16403;SDS011;8311;50.158;8.642;2023-01-10T10:30:52;4.10;;;1.63;;
16403;SDS011;8311;50.158;8.642;2023-01-10T10:33:53;3.65;;;1.77;;
16403;SDS011;8311;50.158;8.642;2023-01-10T10:36:53;3.78;;;1.60;;
16403;SDS011;8311;50.158;8.642;2023-01-10T10:39:51;5.50;;;1.83;;
16403;SDS011;8311;50.158;8.642;2023-01-10T10:42:50;4.82;;;2.10;;
16403;SDS011;8311;50.158;8.642;2023-01-10T10:45:45;6.57;;;1.83;;
16403;SDS011;8311;50.158;8.642;2023-01-10T10:48:44;3.83;;;1.55;;
16403;SDS011;8311;50.158;8.642;2023-01-10T10:51:43;3.40;;;1.67;;
16403;SDS011;8311;50.158;8.642;2023-01-10T10:54:42;3.85;;;1.70;;
16403;SDS011;8311;50.158;8.642;2023-01-10T10:57:38;5.00;;;1.60;;
16403;SDS011;8311;50.158;8.642;2023-01-10T11:00:51;2.40;;;1.40;;
16403;SDS011;8311;50.158;8.642;2023-01-10T11:03:45;6.10;;;1.85;;
16403;SDS011;8311;50.158;8.642;2023-01-10T11:06:41;2.58;;;1.23;;
16403;SDS011;8311;50.158;8.642;2023-01-10T11:09:39;3.85;;;1.55;;
16403;SDS011;8311;50.158;8.642;2023-01-10T11:12:32;3.40;;;1.60;;
16403;SDS011;8311;50.158;8.642;2023-01-10T11:15:33;3.97;;;1.58;;
16403;SDS011;8311;50.158;8.642;2023-01-10T11:18:32;3.75;;;1.55;;
16403;SDS011;8311;50.158;8.642;2023-01-10T11:21:29;4.03;;;1.45;;
16403;SDS011;8311;50.158;8.642;2023-01-10T11:24:24;4.45;;;1.40;;
16403;SDS011;8311;50.158;8.642;2023-01-10T11:27:21;5.13;;;1.90;;
16403;SDS011;8311;50.158;8.642;2023-01-10T11:30:17;4.97;;;1.42;;
16403;SDS011;8311;50.158;8.642;2023-01-10T11:33:16;3.63;;;1.60;;
16403;SDS011;8311;50.158;8.642;2023-01-10T11:36:13;4.30;;;1.75;;
16403;SDS011;8311;50.158;8.642;2023-01-10T11:39:09;5.13;;;1.58;;
16403;SDS011;8311;50.158;8.642;2023-01-10T11:45:22;3.95;;;1.50;;
16403;SDS011;8311;50.158;8.642;2023-01-10T11:48:23;4.25;;;1.80;;
16403;SDS011;8311;50.158;8.642;2023-01-10T11:51:38;7.35;;;1.80;;
16403;SDS011;8311;50.158;8.642;2023-01-10T11:54:39;2.28;;;1.20;;
16403;SDS011;8311;50.158;8.642;2023-01-10T11:57:33;5.45;;;1.70;;
16403;SDS011;8311;50.158;8.642;2023-01-10T12:00:31;3.78;;;1.45;;
16403;SDS011;8311;50.158;8.642;2023-01-10T12:03:28;3.25;;;1.67;;
16403;SDS011;8311;50.158;8.642;2023-01-10T12:06:23;4.45;;;1.33;;
16403;SDS011;8311;50.158;8.642;2023-01-10T12:09:31;3.47;;;1.25;;
16403;SDS011;8311;50.158;8.642;2023-01-10T12:12:31;6.07;;;1.70;;
16403;SDS011;8311;50.158;8.642;2023-01-10T12:15:26;3.97;;;1.52;;
16403;SDS011;8311;50.158;8.642;2023-01-10T12:18:20;3.97;;;1.30;;
16403;SDS011;8311;50.158;8.642;2023-01-10T12:21:16;3.78;;;1.42;;
16403;SDS011;8311;50.158;8.642;2023-01-10T12:24:17;4.35;;;1.20;;
16403;SDS011;8311;50.158;8.642;2023-01-10T12:27:19;3.08;;;1.40;;
16403;SDS011;8311;50.158;8.642;2023-01-10T12:30:17;2.60;;;1.40;;
16403;SDS011;8311;50.158;8.642;2023-01-10T12:33:17;3.70;;;1.20;;
16403;SDS011;8311;50.158;8.642;2023-01-10T12:36:16;1.90;;;1.02;;
16403;SDS011;8311;50.158;8.642;2023-01-10T12:39:27;3.15;;;1.30;;
16403;SDS011;8311;50.158;8.642;2023-01-10T12:42:29;3.38;;;1.38;;
16403;SDS011;8311;50.158;8.642;2023-01-10T12:45:47;2.78;;;1.50;;
16403;SDS011;8311;50.158;8.642;2023-01-10T12:48:45;3.78;;;1.23;;
16403;SDS011;8311;50.158;8.642;2023-01-10T12:51:43;4.03;;;1.38;;
16403;SDS011;8311;50.158;8.642;2023-01-10T12:54:39;5.53;;;1.30;;
16403;SDS011;8311;50.158;8.642;2023-01-10T12:57:35;3.75;;;1.15;;
16403;SDS011;8311;50.158;8.642;2023-01-10T13:00:31;2.50;;;1.02;;
16403;SDS011;8311;50.158;8.642;2023-01-10T13:03:38;6.85;;;1.40;;
16403;SDS011;8311;50.158;8.642;2023-01-10T13:06:31;2.72;;;1.20;;
16403;SDS011;8311;50.158;8.642;2023-01-10T13:09:27;3.05;;;1.25;;
16403;SDS011;8311;50.158;8.642;2023-01-10T13:12:23;3.10;;;1.30;;
16403;SDS011;8311;50.158;8.642;2023-01-10T13:15:27;2.38;;;1.00;;
16403;SDS011;8311;50.158;8.642;2023-01-10T13:18:25;1.67;;;1.00;;
16403;SDS011;8311;50.158;8.642;2023-01-10T13:21:20;3.70;;;1.20;;
16403;SDS011;8311;50.158;8.642;2023-01-10T13:24:15;2.92;;;1.30;;
16403;SDS011;8311;50.158;8.642;2023-01-10T13:27:16;2.55;;;1.08;;
16403;SDS011;8311;50.158;8.642;2023-01-10T13:30:21;4.28;;;1.50;;
16403;SDS011;8311;50.158;8.642;2023-01-10T13:33:23;4.18;;;1.60;;
16403;SDS011;8311;50.158;8.642;2023-01-10T13:36:19;3.22;;;1.30;;
16403;SDS011;8311;50.158;8.642;2023-01-10T13:39:19;3.40;;;1.20;;
16403;SDS011;8311;50.158;8.642;2023-01-10T13:42:26;6.45;;;1.58;;
16403;SDS011;8311;50.158;8.642;2023-01-10T13:45:38;3.53;;;1.30;;
16403;SDS011;8311;50.158;8.642;2023-01-10T13:48:34;4.05;;;1.33;;
16403;SDS011;8311;50.158;8.642;2023-01-10T13:51:28;4.90;;;1.20;;
16403;SDS011;8311;50.158;8.642;2023-01-10T13:54:23;3.10;;;1.20;;
16403;SDS011;8311;50.158;8.642;2023-01-10T14:00:47;4.88;;;1.48;;
16403;SDS011;8311;50.158;8.642;2023-01-10T14:03:59;2.88;;;1.42;;
16403;SDS011;8311;50.158;8.642;2023-01-10T14:06:54;4.78;;;1.45;;
16403;SDS011;8311;50.158;8.642;2023-01-10T14:09:48;2.72;;;1.10;;
16403;SDS011;8311;50.158;8.642;2023-01-10T14:12:46;2.38;;;1.20;;
16403;SDS011;8311;50.158;8.642;2023-01-10T14:15:43;1.77;;;0.93;;
16403;SDS011;8311;50.158;8.642;2023-01-10T14:18:39;3.05;;;1.30;;
16403;SDS011;8311;50.158;8.642;2023-01-10T14:21:37;2.47;;;1.30;;
16403;SDS011;8311;50.158;8.642;2023-01-10T14:24:37;1.80;;;1.00;;
16403;SDS011;8311;50.158;8.642;2023-01-10T14:27:36;2.25;;;1.17;;
16403;SDS011;8311;50.158;8.642;2023-01-10T14:30:36;1.95;;;1.05;;
16403;SDS011;8311;50.158;8.642;2023-01-10T14:33:31;4.85;;;1.58;;
16403;SDS011;8311;50.158;8.642;2023-01-10T14:36:26;1.90;;;1.00;;
16403;SDS011;8311;50.158;8.642;2023-01-10T14:39:23;2.90;;;1.50;;
16403;SDS011;8311;50.158;8.642;2023-01-10T14:42:18;4.18;;;1.13;;
16403;SDS011;8311;50.158;8.642;2023-01-10T14:45:15;1.85;;;0.95;;
16403;SDS011;8311;50.158;8.642;2023-01-10T14:51:32;3.45;;;1.30;;
16403;SDS011;8311;50.158;8.642;2023-01-10T14:54:27;2.92;;;1.13;;
16403;SDS011;8311;50.158;8.642;2023-01-10T14:57:20;4.13;;;1.15;;
16403;SDS011;8311;50.158;8.642;2023-01-10T15:00:15;3.40;;;0.90;;
16403;SDS011;8311;50.158;8.642;2023-01-10T15:03:14;2.65;;;1.08;;
16403;SDS011;8311;50.158;8.642;2023-01-10T15:06:10;3.05;;;1.10;;
16403;SDS011;8311;50.158;8.642;2023-01-10T15:09:03;3.33;;;1.00;;
16403;SDS011;8311;50.158;8.642;2023-01-10T15:12:02;2.83;;;1.00;;
16403;SDS011;8311;50.158;8.642;2023-01-10T15:14:59;3.55;;;1.25;;
16403;SDS011;8311;50.158;8.642;2023-01-10T15:17:54;3.53;;;1.10;;
16403;SDS011;8311;50.158;8.642;2023-01-10T15:20:48;2.80;;;0.85;;
16403;SDS011;8311;50.158;8.642;2023-01-10T15:23:43;2.00;;;1.10;;
16403;SDS011;8311;50.158;8.642;2023-01-10T15:26:38;2.28;;;1.00;;
16403;SDS011;8311;50.158;8.642;2023-01-10T15:29:33;2.17;;;1.27;;
16403;SDS011;8311;50.158;8.642;2023-01-10T15:32:27;2.13;;;1.00;;
16403;SDS011;8311;50.158;8.642;2023-01-10T15:35:24;2.92;;;1.33;;
16403;SDS011;8311;50.158;8.642;2023-01-10T15:38:27;2.15;;;0.90;;
16403;SDS011;8311;50.158;8.642;2023-01-10T15:41:21;3.13;;;1.02;;
16403;SDS011;8311;50.158;8.642;2023-01-10T15:44:22;2.72;;;1.05;;
16403;SDS011;8311;50.158;8.642;2023-01-10T15:47:33;2.60;;;1.00;;
16403;SDS011;8311;50.158;8.642;2023-01-10T15:50:29;3.15;;;0.90;;
16403;SDS011;8311;50.158;8.642;2023-01-10T15:56:46;1.88;;;0.98;;
16403;SDS011;8311;50.158;8.642;2023-01-10T15:59:45;1.77;;;0.80;;
16403;SDS011;8311;50.158;8.642;2023-01-10T16:02:41;2.70;;;0.93;;
16403;SDS011;8311;50.158;8.642;2023-01-10T16:05:35;3.95;;;1.13;;
16403;SDS011;8311;50.158;8.642;2023-01-10T16:08:29;2.17;;;1.08;;
16403;SDS011;8311;50.158;8.642;2023-01-10T16:11:26;2.03;;;1.17;;
16403;SDS011;8311;50.158;8.642;2023-01-10T16:14:43;3.53;;;0.82;;
16403;SDS011;8311;50.158;8.642;2023-01-10T16:17:36;3.25;;;1.10;;
16403;SDS011;8311;50.158;8.642;2023-01-10T16:20:32;3.08;;;1.05;;
16403;SDS011;8311;50.158;8.642;2023-01-10T16:23:28;1.77;;;0.95;;
16403;SDS011;8311;50.158;8.642;2023-01-10T16:26:25;4.10;;;1.00;;
16403;SDS011;8311;50.158;8.642;2023-01-10T16:29:18;4.55;;;1.05;;
16403;SDS011;8311;50.158;8.642;2023-01-10T16:32:12;3.55;;;1.10;;
16403;SDS011;8311;50.158;8.642;2023-01-10T16:35:06;4.68;;;0.98;;
16403;SDS011;8311;50.158;8.642;2023-01-10T16:38:02;3.20;;;1.20;;
16403;SDS011;8311;50.158;8.642;2023-01-10T16:40:56;5.15;;;1.20;;
16403;SDS011;8311;50.158;8.642;2023-01-10T16:43:50;4.63;;;1.02;;
16403;SDS011;8311;50.158;8.642;2023-01-10T16:46:43;4.10;;;1.13;;
16403;SDS011;8311;50.158;8.642;2023-01-10T16:49:36;4.53;;;1.20;;
16403;SDS011;8311;50.158;8.642;2023-01-10T16:52:31;4.22;;;0.90;;
16403;SDS011;8311;50.158;8.642;2023-01-10T16:55:27;4.38;;;1.08;;
16403;SDS011;8311;50.158;8.642;2023-01-10T16:58:27;7.00;;;1.40;;
16403;SDS011;8311;50.158;8.642;2023-01-10T17:01:21;2.45;;;1.05;;
16403;SDS011;8311;50.158;8.642;2023-01-10T17:04:16;3.08;;;0.90;;
16403;SDS011;8311;50.158;8.642;2023-01-10T17:07:12;3.15;;;0.95;;
16403;SDS011;8311;50.158;8.642;2023-01-10T17:10:05;4.50;;;1.55;;
16403;SDS011;8311;50.158;8.642;2023-01-10T17:13:00;3.88;;;1.40;;
16403;SDS011;8311;50.158;8.642;2023-01-10T17:15:55;2.38;;;1.00;;
16403;SDS011;8311;50.158;8.642;2023-01-10T17:18:49;6.32;;;1.38;;
16403;SDS011;8311;50.158;8.642;2023-01-10T17:21:56;2.40;;;0.93;;
16403;SDS011;8311;50.158;8.642;2023-01-10T17:24:51;5.18;;;1.10;;
16403;SDS011;8311;50.158;8.642;2023-01-10T17:27:44;4.18;;;1.00;;
16403;SDS011;8311;50.158;8.642;2023-01-10T17:30:40;2.88;;;1.00;;
16403;SDS011;8311;50.158;8.642;2023-01-10T17:33:33;1.85;;;1.02;;
16403;SDS011;8311;50.158;8.642;2023-01-10T17:36:27;1.40;;;0.80;;
16403;SDS011;8311;50.158;8.642;2023-01-10T17:39:23;5.65;;;1.33;;
16403;SDS011;8311;50.158;8.642;2023-01-10T17:42:16;5.10;;;1.20;;
16403;SDS011;8311;50.158;8.642;2023-01-10T17:45:10;2.50;;;0.80;;
16403;SDS011;8311;50.158;8.642;2023-01-10T17:48:05;3.03;;;0.93;;
16403;SDS011;8311;50.158;8.642;2023-01-10T17:50:58;2.85;;;1.00;;
16403;SDS011;8311;50.158;8.642;2023-01-10T17:53:53;2.05;;;0.85;;
16403;SDS011;8311;50.158;8.642;2023-01-10T17:56:46;2.83;;;0.80;;
16403;SDS011;8311;50.158;8.642;2023-01-10T17:59:39;3.55;;;0.80;;
16403;SDS011;8311;50.158;8.642;2023-01-10T18:02:35;3.30;;;1.10;;
16403;SDS011;8311;50.158;8.642;2023-01-10T18:05:30;4.78;;;1.20;;
16403;SDS011;8311;50.158;8.642;2023-01-10T18:08:25;3.40;;;1.30;;
16403;SDS011;8311;50.158;8.642;2023-01-10T18:11:18;6.75;;;1.30;;
16403;SDS011;8311;50.158;8.642;2023-01-10T18:14:13;5.30;;;1.10;;
16403;SDS011;8311;50.158;8.642;2023-01-10T18:17:23;3.92;;;1.20;;
16403;SDS011;8311;50.158;8.642;2023-01-10T18:20:16;2.55;;;1.00;;
16403;SDS011;8311;50.158;8.642;2023-01-10T18:23:12;4.47;;;1.05;;